< Typhoon 197708 1977 Season Typhoon 197710 >
Typhoon 197709 (BABE)
Okinoerabu Typhoon
General InformationTrack Information on Google MapsDetailed Wind Information || NewsDisaster Info.ResourceGoogle EarthGE AnimationAtom FeedGeoJSON
Detalied Best Track (Time Zone = UTC)
Year Month Day Hour Lat. Long. Pressure (hPa) Wind (kt) Class Image Chart
1977 8 31 06 5.0 155.0 1004 0 2 -- Chart
1977 8 31 12 5.0 153.0 1004 0 2 -- Chart
1977 8 31 18 5.2 151.3 1004 0 2 -- Chart
1977 9 1 00 5.5 149.5 1004 0 2 -- Chart
1977 9 1 06 6.0 148.0 1002 0 2 -- Chart
1977 9 1 12 6.6 146.9 1002 0 2 -- Chart
1977 9 1 18 7.4 145.9 1000 0 2 -- Chart
1977 9 2 00 8.0 144.6 996 0 2 -- Chart
1977 9 2 06 8.6 143.0 985 40 3 -- Chart
1977 9 2 12 8.8 141.5 985 40 3 -- Chart
1977 9 2 18 9.1 139.9 990 40 3 -- Chart
1977 9 3 00 9.8 138.9 992 40 3 -- Chart
1977 9 3 06 10.3 137.5 992 45 3 -- Chart
1977 9 3 12 10.5 136.5 990 45 3 -- Chart
1977 9 3 18 10.6 135.7 990 45 3 -- Chart
1977 9 4 00 10.7 134.9 985 50 4 -- Chart
1977 9 4 06 10.8 134.0 985 60 4 -- Chart
1977 9 4 12 10.8 133.2 985 60 4 -- Chart
1977 9 4 18 11.0 132.5 985 60 4 -- Chart
1977 9 5 00 11.1 131.6 985 60 4 -- Chart
1977 9 5 06 11.1 131.1 985 60 4 -- Chart
1977 9 5 12 11.6 130.6 985 60 4 -- Chart
1977 9 5 18 12.5 130.4 980 60 4 -- Chart
1977 9 6 00 13.3 130.1 980 70 5 -- Chart
1977 9 6 06 14.1 129.7 975 70 5 -- Chart
1977 9 6 12 14.8 129.4 970 70 5 -- Chart
1977 9 6 18 15.6 129.0 960 70 5 -- Chart
1977 9 7 00 16.4 128.6 955 80 5 -- Chart
1977 9 7 06 17.8 128.1 935 90 5 -- Chart
1977 9 7 12 18.7 127.8 925 90 5 -- Chart
1977 9 7 18 19.6 127.4 915 90 5 -- Chart
1977 9 8 00 20.4 127.3 905 110 5 -- Chart
1977 9 8 06 21.3 127.0 905 110 5 -- Chart
1977 9 8 12 22.2 126.7 910 110 5 -- Chart
1977 9 8 18 22.8 127.2 915 110 5 -- Chart
1977 9 9 00 23.6 128.0 920 90 5 -- Chart
1977 9 9 06 24.9 128.6 920 90 5 -- Chart
1977 9 9 12 26.7 128.8 910 90 5 -- Chart
1977 9 9 18 29.0 128.0 915 90 5 -- Chart
1977 9 10 00 30.4 126.2 935 90 5 -- Chart
1977 9 10 06 30.7 124.7 945 80 5 -- Chart
1977 9 10 12 31.1 123.3 955 80 5 -- Chart
1977 9 10 18 31.3 122.3 965 70 5 -- Chart
1977 9 11 00 31.4 121.6 975 50 4 -- Chart
1977 9 11 06 31.5 120.7 985 40 3 -- Chart
1977 9 11 12 31.5 119.7 990 40 3 -- Chart
1977 9 11 18 31.4 118.5 1004 0 2 -- Chart
1977 9 12 00 31.2 117.5 1008 0 6 -- Chart
Japan Meteorological Agency Best Track Data | Correction Date : 1992-10-21
< Typhoon 197708 1977 Season Typhoon 197710 >

Help